sensor_id;sensor_type;location;lat;lon;timestamp;temperature;humidity
21815;DHT22;11069;48.988;8.450;2024-02-28T00:01:51;6.00;99.90
21815;DHT22;11069;48.988;8.450;2024-02-28T00:04:17;5.90;99.90
21815;DHT22;11069;48.988;8.450;2024-02-28T00:06:43;5.90;99.90
21815;DHT22;11069;48.988;8.450;2024-02-28T00:09:10;5.80;99.90
21815;DHT22;11069;48.988;8.450;2024-02-28T00:11:36;5.80;99.90
21815;DHT22;11069;48.988;8.450;2024-02-28T00:14:02;5.80;99.90
21815;DHT22;11069;48.988;8.450;2024-02-28T00:16:28;5.70;99.90
21815;DHT22;11069;48.988;8.450;2024-02-28T00:18:53;5.60;99.90
21815;DHT22;11069;48.988;8.450;2024-02-28T00:21:19;5.70;99.90
21815;DHT22;11069;48.988;8.450;2024-02-28T00:23:44;5.60;99.90
21815;DHT22;11069;48.988;8.450;2024-02-28T00:26:12;5.60;99.90
21815;DHT22;11069;48.988;8.450;2024-02-28T00:28:37;5.50;99.90
21815;DHT22;11069;48.988;8.450;2024-02-28T00:31:03;5.40;99.90
21815;DHT22;11069;48.988;8.450;2024-02-28T00:33:28;5.40;99.90
21815;DHT22;11069;48.988;8.450;2024-02-28T00:35:54;5.40;99.90
21815;DHT22;11069;48.988;8.450;2024-02-28T00:38:20;5.30;99.90
21815;DHT22;11069;48.988;8.450;2024-02-28T00:40:45;5.20;99.90
21815;DHT22;11069;48.988;8.450;2024-02-28T00:43:11;5.00;99.90
21815;DHT22;11069;48.988;8.450;2024-02-28T00:45:36;4.80;99.90
21815;DHT22;11069;48.988;8.450;2024-02-28T00:48:02;4.70;99.90
21815;DHT22;11069;48.988;8.450;2024-02-28T00:50:27;4.60;99.90
21815;DHT22;11069;48.988;8.450;2024-02-28T00:52:53;4.50;99.90
21815;DHT22;11069;48.988;8.450;2024-02-28T00:55:18;4.40;99.90
21815;DHT22;11069;48.988;8.450;2024-02-28T00:57:44;4.40;99.90
21815;DHT22;11069;48.988;8.450;2024-02-28T01:00:10;4.40;99.90
21815;DHT22;11069;48.988;8.450;2024-02-28T01:02:36;4.30;99.90
21815;DHT22;11069;48.988;8.450;2024-02-28T01:05:02;4.30;99.90
21815;DHT22;11069;48.988;8.450;2024-02-28T01:07:27;4.30;99.90
21815;DHT22;11069;48.988;8.450;2024-02-28T01:09:53;4.20;99.90
21815;DHT22;11069;48.988;8.450;2024-02-28T01:12:18;4.10;99.90
21815;DHT22;11069;48.988;8.450;2024-02-28T01:14:44;4.10;99.90
21815;DHT22;11069;48.988;8.450;2024-02-28T01:17:10;4.10;99.90
21815;DHT22;11069;48.988;8.450;2024-02-28T01:19:35;4.10;99.90
21815;DHT22;11069;48.988;8.450;2024-02-28T01:22:01;4.00;99.90
21815;DHT22;11069;48.988;8.450;2024-02-28T01:24:26;3.90;99.90
21815;DHT22;11069;48.988;8.450;2024-02-28T01:26:52;3.80;99.90
21815;DHT22;11069;48.988;8.450;2024-02-28T01:29:18;3.70;99.90
21815;DHT22;11069;48.988;8.450;2024-02-28T01:31:43;3.80;99.90
21815;DHT22;11069;48.988;8.450;2024-02-28T01:34:09;3.70;99.90
21815;DHT22;11069;48.988;8.450;2024-02-28T01:36:34;3.70;99.90
21815;DHT22;11069;48.988;8.450;2024-02-28T01:39:00;3.60;99.90
21815;DHT22;11069;48.988;8.450;2024-02-28T01:41:25;3.60;99.90
21815;DHT22;11069;48.988;8.450;2024-02-28T01:43:51;3.50;99.90
21815;DHT22;11069;48.988;8.450;2024-02-28T01:46:28;3.40;99.90
21815;DHT22;11069;48.988;8.450;2024-02-28T01:48:55;3.30;99.90
21815;DHT22;11069;48.988;8.450;2024-02-28T01:51:23;3.50;99.90
21815;DHT22;11069;48.988;8.450;2024-02-28T01:53:50;3.60;99.90
21815;DHT22;11069;48.988;8.450;2024-02-28T01:56:16;3.60;99.90
21815;DHT22;11069;48.988;8.450;2024-02-28T01:58:44;3.50;99.90
21815;DHT22;11069;48.988;8.450;2024-02-28T02:01:11;3.30;99.90
21815;DHT22;11069;48.988;8.450;2024-02-28T02:03:37;3.20;99.90
21815;DHT22;11069;48.988;8.450;2024-02-28T02:06:03;3.10;99.90
21815;DHT22;11069;48.988;8.450;2024-02-28T02:08:29;3.10;99.90
21815;DHT22;11069;48.988;8.450;2024-02-28T02:10:55;3.00;99.90
21815;DHT22;11069;48.988;8.450;2024-02-28T02:13:21;3.10;99.90
21815;DHT22;11069;48.988;8.450;2024-02-28T02:15:47;3.00;99.90
21815;DHT22;11069;48.988;8.450;2024-02-28T02:18:13;3.00;99.90
21815;DHT22;11069;48.988;8.450;2024-02-28T02:20:43;3.00;99.90
21815;DHT22;11069;48.988;8.450;2024-02-28T02:23:09;2.90;99.90
21815;DHT22;11069;48.988;8.450;2024-02-28T02:25:43;2.90;99.90
21815;DHT22;11069;48.988;8.450;2024-02-28T02:28:09;2.80;99.90
21815;DHT22;11069;48.988;8.450;2024-02-28T02:30:34;2.70;99.90
21815;DHT22;11069;48.988;8.450;2024-02-28T02:33:00;2.70;99.90
21815;DHT22;11069;48.988;8.450;2024-02-28T02:35:25;2.60;99.90
21815;DHT22;11069;48.988;8.450;2024-02-28T02:37:51;2.70;99.90
21815;DHT22;11069;48.988;8.450;2024-02-28T02:40:16;2.70;99.90
21815;DHT22;11069;48.988;8.450;2024-02-28T02:42:42;2.80;99.90
21815;DHT22;11069;48.988;8.450;2024-02-28T02:45:08;2.90;99.90
21815;DHT22;11069;48.988;8.450;2024-02-28T02:47:33;2.90;99.90
21815;DHT22;11069;48.988;8.450;2024-02-28T02:49:59;2.90;99.90
21815;DHT22;11069;48.988;8.450;2024-02-28T02:52:25;3.00;99.90
21815;DHT22;11069;48.988;8.450;2024-02-28T02:54:50;3.00;99.90
21815;DHT22;11069;48.988;8.450;2024-02-28T02:57:16;3.10;99.90
21815;DHT22;11069;48.988;8.450;2024-02-28T02:59:42;3.30;99.90
21815;DHT22;11069;48.988;8.450;2024-02-28T03:02:07;3.50;99.90
21815;DHT22;11069;48.988;8.450;2024-02-28T03:04:33;3.60;99.90
21815;DHT22;11069;48.988;8.450;2024-02-28T03:06:58;3.70;99.90
21815;DHT22;11069;48.988;8.450;2024-02-28T03:09:24;3.80;99.90
21815;DHT22;11069;48.988;8.450;2024-02-28T03:11:50;3.80;99.90
21815;DHT22;11069;48.988;8.450;2024-02-28T03:14:15;3.90;99.90
21815;DHT22;11069;48.988;8.450;2024-02-28T03:16:44;3.90;99.90
21815;DHT22;11069;48.988;8.450;2024-02-28T03:19:10;4.00;99.90
21815;DHT22;11069;48.988;8.450;2024-02-28T03:21:36;4.00;99.90
21815;DHT22;11069;48.988;8.450;2024-02-28T03:24:02;4.10;99.90
21815;DHT22;11069;48.988;8.450;2024-02-28T03:26:27;4.10;99.90
21815;DHT22;11069;48.988;8.450;2024-02-28T03:28:53;4.20;99.90
21815;DHT22;11069;48.988;8.450;2024-02-28T03:31:18;4.20;99.90
21815;DHT22;11069;48.988;8.450;2024-02-28T03:33:44;4.20;99.90
21815;DHT22;11069;48.988;8.450;2024-02-28T03:36:12;4.30;99.90
21815;DHT22;11069;48.988;8.450;2024-02-28T03:38:37;4.20;99.90
21815;DHT22;11069;48.988;8.450;2024-02-28T03:41:03;4.30;99.90
21815;DHT22;11069;48.988;8.450;2024-02-28T03:43:29;4.40;99.90
21815;DHT22;11069;48.988;8.450;2024-02-28T03:45:54;4.40;99.90
21815;DHT22;11069;48.988;8.450;2024-02-28T03:48:20;4.40;99.90
21815;DHT22;11069;48.988;8.450;2024-02-28T03:50:45;4.40;99.90
21815;DHT22;11069;48.988;8.450;2024-02-28T03:53:11;4.30;99.90
21815;DHT22;11069;48.988;8.450;2024-02-28T03:55:37;4.30;99.90
21815;DHT22;11069;48.988;8.450;2024-02-28T03:58:03;4.30;99.90
21815;DHT22;11069;48.988;8.450;2024-02-28T04:00:29;4.40;99.90
21815;DHT22;11069;48.988;8.450;2024-02-28T04:02:54;4.30;99.90
21815;DHT22;11069;48.988;8.450;2024-02-28T04:05:20;4.30;99.90
21815;DHT22;11069;48.988;8.450;2024-02-28T04:07:45;4.30;99.90
21815;DHT22;11069;48.988;8.450;2024-02-28T04:10:11;4.40;99.90
21815;DHT22;11069;48.988;8.450;2024-02-28T04:12:37;4.40;99.90
21815;DHT22;11069;48.988;8.450;2024-02-28T04:15:03;4.40;99.90
21815;DHT22;11069;48.988;8.450;2024-02-28T04:17:28;4.40;99.90
21815;DHT22;11069;48.988;8.450;2024-02-28T04:19:54;4.40;99.90
21815;DHT22;11069;48.988;8.450;2024-02-28T04:22:19;4.50;99.90
21815;DHT22;11069;48.988;8.450;2024-02-28T04:24:45;4.60;99.90
21815;DHT22;11069;48.988;8.450;2024-02-28T04:27:11;4.60;99.90
21815;DHT22;11069;48.988;8.450;2024-02-28T04:29:37;4.60;99.90
21815;DHT22;11069;48.988;8.450;2024-02-28T04:32:03;4.70;99.90
21815;DHT22;11069;48.988;8.450;2024-02-28T04:34:29;4.80;99.90
21815;DHT22;11069;48.988;8.450;2024-02-28T04:36:54;4.80;99.90
21815;DHT22;11069;48.988;8.450;2024-02-28T04:39:20;4.90;99.90
21815;DHT22;11069;48.988;8.450;2024-02-28T04:41:45;4.90;99.90
21815;DHT22;11069;48.988;8.450;2024-02-28T04:44:11;5.00;99.90
21815;DHT22;11069;48.988;8.450;2024-02-28T04:46:37;5.00;99.90
21815;DHT22;11069;48.988;8.450;2024-02-28T04:49:03;5.10;99.90
21815;DHT22;11069;48.988;8.450;2024-02-28T04:51:28;5.10;99.90
21815;DHT22;11069;48.988;8.450;2024-02-28T04:53:54;5.10;99.90
21815;DHT22;11069;48.988;8.450;2024-02-28T04:56:19;5.20;99.90
21815;DHT22;11069;48.988;8.450;2024-02-28T04:58:45;5.20;99.90
21815;DHT22;11069;48.988;8.450;2024-02-28T05:01:10;5.20;99.90
21815;DHT22;11069;48.988;8.450;2024-02-28T05:03:38;5.20;99.90
21815;DHT22;11069;48.988;8.450;2024-02-28T05:06:03;5.10;99.90
21815;DHT22;11069;48.988;8.450;2024-02-28T05:08:29;5.20;99.90
21815;DHT22;11069;48.988;8.450;2024-02-28T05:10:55;5.30;99.90
21815;DHT22;11069;48.988;8.450;2024-02-28T05:13:20;5.30;99.90
21815;DHT22;11069;48.988;8.450;2024-02-28T05:15:47;5.20;99.90
21815;DHT22;11069;48.988;8.450;2024-02-28T05:18:13;5.20;99.90
21815;DHT22;11069;48.988;8.450;2024-02-28T05:20:38;5.10;99.90
21815;DHT22;11069;48.988;8.450;2024-02-28T05:23:04;5.10;99.90
21815;DHT22;11069;48.988;8.450;2024-02-28T05:25:29;5.00;99.90
21815;DHT22;11069;48.988;8.450;2024-02-28T05:27:55;5.00;99.90
21815;DHT22;11069;48.988;8.450;2024-02-28T05:30:20;5.00;99.90
21815;DHT22;11069;48.988;8.450;2024-02-28T05:32:46;5.00;99.90
21815;DHT22;11069;48.988;8.450;2024-02-28T05:35:12;4.80;99.90
21815;DHT22;11069;48.988;8.450;2024-02-28T05:37:37;4.80;99.90
21815;DHT22;11069;48.988;8.450;2024-02-28T05:40:03;4.70;99.90
21815;DHT22;11069;48.988;8.450;2024-02-28T05:42:29;4.60;99.90
21815;DHT22;11069;48.988;8.450;2024-02-28T05:44:56;4.40;99.90
21815;DHT22;11069;48.988;8.450;2024-02-28T05:47:22;4.40;99.90
21815;DHT22;11069;48.988;8.450;2024-02-28T05:49:48;4.30;99.90
21815;DHT22;11069;48.988;8.450;2024-02-28T05:52:13;4.20;99.90
21815;DHT22;11069;48.988;8.450;2024-02-28T05:54:40;4.10;99.90
21815;DHT22;11069;48.988;8.450;2024-02-28T05:57:06;4.00;99.90
21815;DHT22;11069;48.988;8.450;2024-02-28T05:59:31;3.80;99.90
21815;DHT22;11069;48.988;8.450;2024-02-28T06:01:57;3.70;99.90
21815;DHT22;11069;48.988;8.450;2024-02-28T06:04:22;3.70;99.90
21815;DHT22;11069;48.988;8.450;2024-02-28T06:06:48;3.50;99.90
21815;DHT22;11069;48.988;8.450;2024-02-28T06:09:15;3.40;99.90
21815;DHT22;11069;48.988;8.450;2024-02-28T06:11:41;3.40;99.90
21815;DHT22;11069;48.988;8.450;2024-02-28T06:14:07;3.30;99.90
21815;DHT22;11069;48.988;8.450;2024-02-28T06:16:32;3.30;99.90
21815;DHT22;11069;48.988;8.450;2024-02-28T06:18:58;3.30;99.90
21815;DHT22;11069;48.988;8.450;2024-02-28T06:21:23;3.30;99.90
21815;DHT22;11069;48.988;8.450;2024-02-28T06:23:49;3.30;99.90
21815;DHT22;11069;48.988;8.450;2024-02-28T06:26:15;3.20;99.90
21815;DHT22;11069;48.988;8.450;2024-02-28T06:28:45;3.30;99.90
21815;DHT22;11069;48.988;8.450;2024-02-28T06:31:15;3.30;99.90
21815;DHT22;11069;48.988;8.450;2024-02-28T06:33:41;3.30;99.90
21815;DHT22;11069;48.988;8.450;2024-02-28T06:36:07;3.30;99.90
21815;DHT22;11069;48.988;8.450;2024-02-28T06:38:33;3.20;99.90
21815;DHT22;11069;48.988;8.450;2024-02-28T06:41:03;3.10;99.90
21815;DHT22;11069;48.988;8.450;2024-02-28T06:43:29;3.20;99.90
21815;DHT22;11069;48.988;8.450;2024-02-28T06:45:55;3.30;99.90
21815;DHT22;11069;48.988;8.450;2024-02-28T06:48:20;3.30;99.90
21815;DHT22;11069;48.988;8.450;2024-02-28T06:50:46;3.40;99.90
21815;DHT22;11069;48.988;8.450;2024-02-28T06:53:11;3.50;99.90
21815;DHT22;11069;48.988;8.450;2024-02-28T06:55:37;3.60;99.90
21815;DHT22;11069;48.988;8.450;2024-02-28T06:58:03;3.60;99.90
21815;DHT22;11069;48.988;8.450;2024-02-28T07:00:28;3.70;99.90
21815;DHT22;11069;48.988;8.450;2024-02-28T07:02:54;3.70;99.90
21815;DHT22;11069;48.988;8.450;2024-02-28T07:05:20;3.70;99.90
21815;DHT22;11069;48.988;8.450;2024-02-28T07:07:49;3.70;99.90
21815;DHT22;11069;48.988;8.450;2024-02-28T07:10:15;3.80;99.90
21815;DHT22;11069;48.988;8.450;2024-02-28T07:12:40;3.80;99.90
21815;DHT22;11069;48.988;8.450;2024-02-28T07:15:06;3.80;99.90
21815;DHT22;11069;48.988;8.450;2024-02-28T07:17:32;3.90;99.90
21815;DHT22;11069;48.988;8.450;2024-02-28T07:19:57;4.10;99.90
21815;DHT22;11069;48.988;8.450;2024-02-28T07:22:23;4.20;99.90
21815;DHT22;11069;48.988;8.450;2024-02-28T07:24:49;4.20;99.90
21815;DHT22;11069;48.988;8.450;2024-02-28T07:27:14;4.30;99.90
21815;DHT22;11069;48.988;8.450;2024-02-28T07:29:41;4.40;99.90
21815;DHT22;11069;48.988;8.450;2024-02-28T07:32:07;4.50;99.90
21815;DHT22;11069;48.988;8.450;2024-02-28T07:34:33;4.60;99.90
21815;DHT22;11069;48.988;8.450;2024-02-28T07:36:59;4.70;99.90
21815;DHT22;11069;48.988;8.450;2024-02-28T07:39:25;4.80;99.90
21815;DHT22;11069;48.988;8.450;2024-02-28T07:41:51;4.90;99.90
21815;DHT22;11069;48.988;8.450;2024-02-28T07:44:16;5.10;99.90
21815;DHT22;11069;48.988;8.450;2024-02-28T07:46:42;5.40;99.90
21815;DHT22;11069;48.988;8.450;2024-02-28T07:49:08;5.50;99.90
21815;DHT22;11069;48.988;8.450;2024-02-28T07:51:33;5.60;99.90
21815;DHT22;11069;48.988;8.450;2024-02-28T07:53:59;5.50;99.90
21815;DHT22;11069;48.988;8.450;2024-02-28T07:56:25;5.90;99.90
21815;DHT22;11069;48.988;8.450;2024-02-28T07:58:50;6.20;99.90
21815;DHT22;11069;48.988;8.450;2024-02-28T08:01:16;6.30;99.90
21815;DHT22;11069;48.988;8.450;2024-02-28T08:03:42;6.70;99.90
21815;DHT22;11069;48.988;8.450;2024-02-28T08:06:07;7.10;99.90
21815;DHT22;11069;48.988;8.450;2024-02-28T08:08:35;6.70;99.90
21815;DHT22;11069;48.988;8.450;2024-02-28T08:11:00;6.80;99.90
21815;DHT22;11069;48.988;8.450;2024-02-28T08:13:26;7.10;99.90
21815;DHT22;11069;48.988;8.450;2024-02-28T08:15:54;7.20;99.90
21815;DHT22;11069;48.988;8.450;2024-02-28T08:18:19;7.40;99.90
21815;DHT22;11069;48.988;8.450;2024-02-28T08:20:45;7.30;99.90
21815;DHT22;11069;48.988;8.450;2024-02-28T08:23:11;7.30;99.90
21815;DHT22;11069;48.988;8.450;2024-02-28T08:25:37;6.90;99.90
21815;DHT22;11069;48.988;8.450;2024-02-28T08:28:03;7.00;99.90
21815;DHT22;11069;48.988;8.450;2024-02-28T08:30:29;7.50;99.90
21815;DHT22;11069;48.988;8.450;2024-02-28T08:32:54;7.90;99.90
21815;DHT22;11069;48.988;8.450;2024-02-28T08:35:20;8.60;99.90
21815;DHT22;11069;48.988;8.450;2024-02-28T08:37:46;8.80;99.90
21815;DHT22;11069;48.988;8.450;2024-02-28T08:40:11;9.40;99.90
21815;DHT22;11069;48.988;8.450;2024-02-28T08:42:38;9.70;99.90
21815;DHT22;11069;48.988;8.450;2024-02-28T08:45:03;10.10;99.90
21815;DHT22;11069;48.988;8.450;2024-02-28T08:47:31;10.30;99.90
21815;DHT22;11069;48.988;8.450;2024-02-28T08:49:57;10.50;99.90
21815;DHT22;11069;48.988;8.450;2024-02-28T08:52:23;9.90;99.90
21815;DHT22;11069;48.988;8.450;2024-02-28T08:54:48;10.60;99.90
21815;DHT22;11069;48.988;8.450;2024-02-28T08:57:14;11.60;99.90
21815;DHT22;11069;48.988;8.450;2024-02-28T08:59:40;12.40;99.90
21815;DHT22;11069;48.988;8.450;2024-02-28T09:02:07;11.80;99.90
21815;DHT22;11069;48.988;8.450;2024-02-28T09:04:33;12.70;99.90
21815;DHT22;11069;48.988;8.450;2024-02-28T09:06:58;11.00;99.90
21815;DHT22;11069;48.988;8.450;2024-02-28T09:09:24;11.40;99.90
21815;DHT22;11069;48.988;8.450;2024-02-28T09:11:50;11.00;99.90
21815;DHT22;11069;48.988;8.450;2024-02-28T09:14:15;10.10;99.90
21815;DHT22;11069;48.988;8.450;2024-02-28T09:16:41;9.90;99.90
21815;DHT22;11069;48.988;8.450;2024-02-28T09:19:06;10.40;99.90
21815;DHT22;11069;48.988;8.450;2024-02-28T09:21:32;9.40;99.90
21815;DHT22;11069;48.988;8.450;2024-02-28T09:23:58;9.30;99.90
21815;DHT22;11069;48.988;8.450;2024-02-28T09:26:23;9.60;99.90
21815;DHT22;11069;48.988;8.450;2024-02-28T09:28:49;9.70;99.90
21815;DHT22;11069;48.988;8.450;2024-02-28T09:31:14;10.30;99.90
21815;DHT22;11069;48.988;8.450;2024-02-28T09:33:43;9.70;99.90
21815;DHT22;11069;48.988;8.450;2024-02-28T09:36:09;10.90;99.90
21815;DHT22;11069;48.988;8.450;2024-02-28T09:38:35;11.10;99.90
21815;DHT22;11069;48.988;8.450;2024-02-28T09:41:04;11.60;99.90
21815;DHT22;11069;48.988;8.450;2024-02-28T09:43:31;12.20;99.90
21815;DHT22;11069;48.988;8.450;2024-02-28T09:46:03;11.90;99.90
21815;DHT22;11069;48.988;8.450;2024-02-28T09:48:29;11.50;99.90
21815;DHT22;11069;48.988;8.450;2024-02-28T09:50:57;12.20;99.90
21815;DHT22;11069;48.988;8.450;2024-02-28T09:53:23;12.80;99.90
21815;DHT22;11069;48.988;8.450;2024-02-28T09:55:49;11.70;99.90
21815;DHT22;11069;48.988;8.450;2024-02-28T09:58:16;11.40;99.90
21815;DHT22;11069;48.988;8.450;2024-02-28T10:00:43;12.30;99.90
21815;DHT22;11069;48.988;8.450;2024-02-28T10:03:13;13.30;99.90
21815;DHT22;11069;48.988;8.450;2024-02-28T10:05:39;13.30;99.90
21815;DHT22;11069;48.988;8.450;2024-02-28T10:08:06;13.30;99.90
21815;DHT22;11069;48.988;8.450;2024-02-28T10:10:31;13.90;99.90
21815;DHT22;11069;48.988;8.450;2024-02-28T10:12:57;13.60;99.90
21815;DHT22;11069;48.988;8.450;2024-02-28T10:15:26;13.80;99.90
21815;DHT22;11069;48.988;8.450;2024-02-28T10:17:53;14.10;99.90
21815;DHT22;11069;48.988;8.450;2024-02-28T10:20:18;13.80;99.90
21815;DHT22;11069;48.988;8.450;2024-02-28T10:22:45;13.70;99.90
21815;DHT22;11069;48.988;8.450;2024-02-28T10:25:10;12.60;99.90
21815;DHT22;11069;48.988;8.450;2024-02-28T10:27:36;12.30;99.90
21815;DHT22;11069;48.988;8.450;2024-02-28T10:30:03;12.60;99.90
21815;DHT22;11069;48.988;8.450;2024-02-28T10:32:31;12.90;99.90
21815;DHT22;11069;48.988;8.450;2024-02-28T10:34:58;13.60;99.90
21815;DHT22;11069;48.988;8.450;2024-02-28T10:37:24;13.70;99.90
21815;DHT22;11069;48.988;8.450;2024-02-28T10:39:52;13.30;99.90
21815;DHT22;11069;48.988;8.450;2024-02-28T10:42:21;13.70;99.90
21815;DHT22;11069;48.988;8.450;2024-02-28T10:44:50;13.00;99.90
21815;DHT22;11069;48.988;8.450;2024-02-28T10:47:17;12.70;99.90
21815;DHT22;11069;48.988;8.450;2024-02-28T10:49:43;12.40;99.90
21815;DHT22;11069;48.988;8.450;2024-02-28T10:52:11;13.10;99.90
21815;DHT22;11069;48.988;8.450;2024-02-28T10:54:40;13.90;99.90
21815;DHT22;11069;48.988;8.450;2024-02-28T10:57:12;13.70;99.90
21815;DHT22;11069;48.988;8.450;2024-02-28T10:59:37;12.00;99.90
21815;DHT22;11069;48.988;8.450;2024-02-28T11:02:05;11.20;99.90
21815;DHT22;11069;48.988;8.450;2024-02-28T11:04:31;10.40;99.90
21815;DHT22;11069;48.988;8.450;2024-02-28T11:06:57;10.90;99.90
21815;DHT22;11069;48.988;8.450;2024-02-28T11:09:24;11.60;99.90
21815;DHT22;11069;48.988;8.450;2024-02-28T11:11:53;11.50;99.90
21815;DHT22;11069;48.988;8.450;2024-02-28T11:14:21;11.10;99.90
21815;DHT22;11069;48.988;8.450;2024-02-28T11:16:48;10.40;99.90
21815;DHT22;11069;48.988;8.450;2024-02-28T11:19:21;10.10;99.90
21815;DHT22;11069;48.988;8.450;2024-02-28T11:21:53;10.10;99.90
21815;DHT22;11069;48.988;8.450;2024-02-28T11:24:29;10.10;99.90
21815;DHT22;11069;48.988;8.450;2024-02-28T11:26:54;9.90;99.90
21815;DHT22;11069;48.988;8.450;2024-02-28T11:29:27;9.70;99.90
21815;DHT22;11069;48.988;8.450;2024-02-28T11:31:56;9.90;99.90
21815;DHT22;11069;48.988;8.450;2024-02-28T11:34:22;9.70;99.90
21815;DHT22;11069;48.988;8.450;2024-02-28T11:36:49;9.70;99.90
21815;DHT22;11069;48.988;8.450;2024-02-28T11:39:16;9.60;99.90
21815;DHT22;11069;48.988;8.450;2024-02-28T11:41:43;9.60;99.90
21815;DHT22;11069;48.988;8.450;2024-02-28T11:44:12;9.70;99.90
21815;DHT22;11069;48.988;8.450;2024-02-28T11:46:42;10.10;99.90
21815;DHT22;11069;48.988;8.450;2024-02-28T11:49:07;10.30;99.90
21815;DHT22;11069;48.988;8.450;2024-02-28T11:51:33;10.40;99.90
21815;DHT22;11069;48.988;8.450;2024-02-28T11:54:01;10.50;99.90
21815;DHT22;11069;48.988;8.450;2024-02-28T11:56:27;10.50;99.90
21815;DHT22;11069;48.988;8.450;2024-02-28T11:58:53;11.20;99.90
21815;DHT22;11069;48.988;8.450;2024-02-28T12:01:43;11.60;99.90
21815;DHT22;11069;48.988;8.450;2024-02-28T12:04:16;12.00;99.90
21815;DHT22;11069;48.988;8.450;2024-02-28T12:06:42;12.10;99.90
21815;DHT22;11069;48.988;8.450;2024-02-28T12:09:09;11.70;99.90
21815;DHT22;11069;48.988;8.450;2024-02-28T12:11:36;11.90;99.90
21815;DHT22;11069;48.988;8.450;2024-02-28T12:14:06;11.80;99.90
21815;DHT22;11069;48.988;8.450;2024-02-28T12:16:36;11.70;99.90
21815;DHT22;11069;48.988;8.450;2024-02-28T12:19:09;12.00;99.90
21815;DHT22;11069;48.988;8.450;2024-02-28T12:21:39;13.20;99.90
21815;DHT22;11069;48.988;8.450;2024-02-28T12:24:08;14.00;99.90
21815;DHT22;11069;48.988;8.450;2024-02-28T12:26:35;14.50;99.90
21815;DHT22;11069;48.988;8.450;2024-02-28T12:29:01;14.70;99.90
21815;DHT22;11069;48.988;8.450;2024-02-28T12:31:27;14.60;99.90
21815;DHT22;11069;48.988;8.450;2024-02-28T12:33:53;13.90;99.90
21815;DHT22;11069;48.988;8.450;2024-02-28T12:36:20;14.30;99.90
21815;DHT22;11069;48.988;8.450;2024-02-28T12:38:46;14.30;99.90
21815;DHT22;11069;48.988;8.450;2024-02-28T12:41:12;14.40;99.90
21815;DHT22;11069;48.988;8.450;2024-02-28T12:43:38;15.20;99.90
21815;DHT22;11069;48.988;8.450;2024-02-28T12:46:05;15.60;99.20
21815;DHT22;11069;48.988;8.450;2024-02-28T12:48:31;15.70;98.10
21815;DHT22;11069;48.988;8.450;2024-02-28T12:51:02;15.30;98.80
21815;DHT22;11069;48.988;8.450;2024-02-28T12:53:27;15.10;98.90
21815;DHT22;11069;48.988;8.450;2024-02-28T12:55:53;15.90;97.40
21815;DHT22;11069;48.988;8.450;2024-02-28T12:58:18;15.80;97.40
21815;DHT22;11069;48.988;8.450;2024-02-28T13:00:44;15.80;97.00
21815;DHT22;11069;48.988;8.450;2024-02-28T13:03:10;15.90;97.50
21815;DHT22;11069;48.988;8.450;2024-02-28T13:05:36;16.30;95.20
21815;DHT22;11069;48.988;8.450;2024-02-28T13:08:03;16.30;95.50
21815;DHT22;11069;48.988;8.450;2024-02-28T13:10:29;16.50;95.00
21815;DHT22;11069;48.988;8.450;2024-02-28T13:12:55;16.40;94.70
21815;DHT22;11069;48.988;8.450;2024-02-28T13:15:21;16.40;95.00
21815;DHT22;11069;48.988;8.450;2024-02-28T13:17:47;16.20;94.90
21815;DHT22;11069;48.988;8.450;2024-02-28T13:20:15;16.60;94.40
21815;DHT22;11069;48.988;8.450;2024-02-28T13:22:40;16.80;95.30
21815;DHT22;11069;48.988;8.450;2024-02-28T13:25:06;17.10;94.20
21815;DHT22;11069;48.988;8.450;2024-02-28T13:27:32;17.50;93.20
21815;DHT22;11069;48.988;8.450;2024-02-28T13:29:57;16.70;93.00
21815;DHT22;11069;48.988;8.450;2024-02-28T13:32:23;16.70;94.00
21815;DHT22;11069;48.988;8.450;2024-02-28T13:34:49;16.30;94.40
21815;DHT22;11069;48.988;8.450;2024-02-28T13:37:14;16.30;94.30
21815;DHT22;11069;48.988;8.450;2024-02-28T13:39:40;16.70;94.20
21815;DHT22;11069;48.988;8.450;2024-02-28T13:42:06;16.50;94.50
21815;DHT22;11069;48.988;8.450;2024-02-28T13:44:34;15.90;94.40
21815;DHT22;11069;48.988;8.450;2024-02-28T13:47:02;15.20;95.80
21815;DHT22;11069;48.988;8.450;2024-02-28T13:49:28;14.40;96.70
21815;DHT22;11069;48.988;8.450;2024-02-28T13:51:54;14.60;96.90
21815;DHT22;11069;48.988;8.450;2024-02-28T13:54:19;15.60;95.60
21815;DHT22;11069;48.988;8.450;2024-02-28T13:56:45;16.50;95.10
21815;DHT22;11069;48.988;8.450;2024-02-28T13:59:11;16.50;93.00
21815;DHT22;11069;48.988;8.450;2024-02-28T14:01:36;16.70;93.10
21815;DHT22;11069;48.988;8.450;2024-02-28T14:04:02;16.50;93.80
21815;DHT22;11069;48.988;8.450;2024-02-28T14:06:29;16.20;94.60
21815;DHT22;11069;48.988;8.450;2024-02-28T14:08:54;16.20;93.50
21815;DHT22;11069;48.988;8.450;2024-02-28T14:11:20;15.60;95.30
21815;DHT22;11069;48.988;8.450;2024-02-28T14:13:46;15.00;95.40
21815;DHT22;11069;48.988;8.450;2024-02-28T14:16:12;15.80;94.80
21815;DHT22;11069;48.988;8.450;2024-02-28T14:18:37;16.70;93.10
21815;DHT22;11069;48.988;8.450;2024-02-28T14:21:04;16.60;92.70
21815;DHT22;11069;48.988;8.450;2024-02-28T14:23:29;16.80;92.20
21815;DHT22;11069;48.988;8.450;2024-02-28T14:25:56;16.10;92.90
21815;DHT22;11069;48.988;8.450;2024-02-28T14:28:22;15.80;93.50
21815;DHT22;11069;48.988;8.450;2024-02-28T14:30:47;15.20;94.10
21815;DHT22;11069;48.988;8.450;2024-02-28T14:33:14;15.40;95.60
21815;DHT22;11069;48.988;8.450;2024-02-28T14:35:40;15.80;94.20
21815;DHT22;11069;48.988;8.450;2024-02-28T14:38:07;16.30;93.70
21815;DHT22;11069;48.988;8.450;2024-02-28T14:40:33;16.00;93.50
21815;DHT22;11069;48.988;8.450;2024-02-28T14:42:59;14.70;95.60
21815;DHT22;11069;48.988;8.450;2024-02-28T14:45:25;14.70;96.00
21815;DHT22;11069;48.988;8.450;2024-02-28T14:47:53;15.00;94.90
21815;DHT22;11069;48.988;8.450;2024-02-28T14:50:19;15.20;95.00
21815;DHT22;11069;48.988;8.450;2024-02-28T14:52:46;15.40;94.60
21815;DHT22;11069;48.988;8.450;2024-02-28T14:55:12;15.30;94.80
21815;DHT22;11069;48.988;8.450;2024-02-28T14:57:38;14.50;96.00
21815;DHT22;11069;48.988;8.450;2024-02-28T15:00:06;14.60;95.70
21815;DHT22;11069;48.988;8.450;2024-02-28T15:02:34;15.40;95.20
21815;DHT22;11069;48.988;8.450;2024-02-28T15:05:00;15.10;94.60
21815;DHT22;11069;48.988;8.450;2024-02-28T15:07:27;14.50;95.80
21815;DHT22;11069;48.988;8.450;2024-02-28T15:09:53;13.90;96.30
21815;DHT22;11069;48.988;8.450;2024-02-28T15:12:18;13.20;97.60
21815;DHT22;11069;48.988;8.450;2024-02-28T15:14:44;12.80;98.40
21815;DHT22;11069;48.988;8.450;2024-02-28T15:17:10;13.00;98.20
21815;DHT22;11069;48.988;8.450;2024-02-28T15:19:35;12.80;98.70
21815;DHT22;11069;48.988;8.450;2024-02-28T15:22:01;13.20;98.20
21815;DHT22;11069;48.988;8.450;2024-02-28T15:24:27;13.30;98.10
21815;DHT22;11069;48.988;8.450;2024-02-28T15:26:52;13.20;98.20
21815;DHT22;11069;48.988;8.450;2024-02-28T15:29:18;12.90;99.00
21815;DHT22;11069;48.988;8.450;2024-02-28T15:31:45;12.80;99.20
21815;DHT22;11069;48.988;8.450;2024-02-28T15:34:10;12.70;99.40